CYLA

Aupaluk Airport

Aupaluk, Quebec, Canada
METAR CYLA 162100Z 16003KT 15SM BKN031 M05/M12 A2969 RMK SC7 SNW CVR/TR LOOSE LAST STFD OBS/NXT 171200UTC SLP059
Observed Flight Rules
Oct-16 @ 21:00 UTC (6 hours ago) Visual Flight Rules
Wind Visibility Clouds
160° at 3 knots 15 miles
  • Broken at 3,100' AGL
Temperatures Readings
Current -5°C / 23°F
Dewpoint -12°C / 10°F
Humidity 58%
Altimeter 29.69" Hg
Pressure 1005.9 hPa
Elevation 35
METAR CYLA 162100Z 16003KT 15SM BKN031 M05/M12 A2969 RMK SC7 SNW CVR/TR LOOSE LAST STFD OBS/NXT 171200UTC SLP059
Observed Flight Rules
Oct-16 @ 21:00 UTC
(6 hours ago)
VFR
Wind Visibility
160° at 3 knots 15 miles
Clouds
  • Broken at 3,100' AGL
Temperature Dewpoint
-5°C / 23°F -12°C / 10°F
Humidity Altimeter Pressure
58% 29.69" Hg 1005.9 hPa